sensor_id;sensor_type;location;lat;lon;timestamp;P1;durP1;ratioP1;P2;durP2;ratioP2
8716;SDS011;4395;48.554;8.820;2023-03-31T00:00:18;4.57;;;2.03;;
8716;SDS011;4395;48.554;8.820;2023-03-31T00:02:21;5.07;;;2.00;;
8716;SDS011;4395;48.554;8.820;2023-03-31T00:04:24;3.63;;;2.00;;
8716;SDS011;4395;48.554;8.820;2023-03-31T00:06:27;6.13;;;2.30;;
8716;SDS011;4395;48.554;8.820;2023-03-31T00:08:31;6.43;;;2.17;;
8716;SDS011;4395;48.554;8.820;2023-03-31T00:10:36;7.35;;;2.50;;
8716;SDS011;4395;48.554;8.820;2023-03-31T00:12:42;6.22;;;2.40;;
8716;SDS011;4395;48.554;8.820;2023-03-31T00:14:47;3.85;;;2.10;;
8716;SDS011;4395;48.554;8.820;2023-03-31T00:16:50;6.43;;;2.55;;
8716;SDS011;4395;48.554;8.820;2023-03-31T00:18:53;4.10;;;2.42;;
8716;SDS011;4395;48.554;8.820;2023-03-31T00:20:58;5.97;;;2.00;;
8716;SDS011;4395;48.554;8.820;2023-03-31T00:23:08;4.63;;;2.42;;
8716;SDS011;4395;48.554;8.820;2023-03-31T00:25:15;6.60;;;2.20;;
8716;SDS011;4395;48.554;8.820;2023-03-31T00:27:18;4.60;;;2.15;;
8716;SDS011;4395;48.554;8.820;2023-03-31T00:29:21;5.03;;;2.20;;
8716;SDS011;4395;48.554;8.820;2023-03-31T00:31:25;5.75;;;2.22;;
8716;SDS011;4395;48.554;8.820;2023-03-31T00:33:29;6.55;;;2.70;;
8716;SDS011;4395;48.554;8.820;2023-03-31T00:35:34;6.90;;;2.38;;
8716;SDS011;4395;48.554;8.820;2023-03-31T00:37:39;6.55;;;2.50;;
8716;SDS011;4395;48.554;8.820;2023-03-31T00:39:43;6.93;;;2.42;;
8716;SDS011;4395;48.554;8.820;2023-03-31T00:41:46;5.35;;;2.33;;
8716;SDS011;4395;48.554;8.820;2023-03-31T00:43:59;4.82;;;2.40;;
8716;SDS011;4395;48.554;8.820;2023-03-31T00:46:09;6.38;;;2.15;;
8716;SDS011;4395;48.554;8.820;2023-03-31T00:48:19;5.68;;;2.47;;
8716;SDS011;4395;48.554;8.820;2023-03-31T00:50:25;4.30;;;2.08;;
8716;SDS011;4395;48.554;8.820;2023-03-31T00:52:31;5.00;;;2.30;;
8716;SDS011;4395;48.554;8.820;2023-03-31T00:54:37;4.00;;;2.60;;
8716;SDS011;4395;48.554;8.820;2023-03-31T00:56:46;5.00;;;2.60;;
8716;SDS011;4395;48.554;8.820;2023-03-31T00:58:50;8.07;;;2.70;;
8716;SDS011;4395;48.554;8.820;2023-03-31T01:01:01;6.72;;;2.55;;
8716;SDS011;4395;48.554;8.820;2023-03-31T01:03:05;7.13;;;2.65;;
8716;SDS011;4395;48.554;8.820;2023-03-31T01:05:12;7.18;;;2.70;;
8716;SDS011;4395;48.554;8.820;2023-03-31T01:07:17;9.32;;;2.42;;
8716;SDS011;4395;48.554;8.820;2023-03-31T01:09:25;4.65;;;2.55;;
8716;SDS011;4395;48.554;8.820;2023-03-31T01:11:35;8.95;;;2.58;;
8716;SDS011;4395;48.554;8.820;2023-03-31T01:13:38;8.05;;;3.05;;
8716;SDS011;4395;48.554;8.820;2023-03-31T01:15:43;3.80;;;2.20;;
8716;SDS011;4395;48.554;8.820;2023-03-31T01:17:46;7.18;;;2.50;;
8716;SDS011;4395;48.554;8.820;2023-03-31T01:19:54;4.53;;;2.13;;
8716;SDS011;4395;48.554;8.820;2023-03-31T01:27:48;3.75;;;2.40;;
8716;SDS011;4395;48.554;8.820;2023-03-31T01:30:15;7.05;;;2.58;;
8716;SDS011;4395;48.554;8.820;2023-03-31T01:38:09;4.40;;;2.58;;
8716;SDS011;4395;48.554;8.820;2023-03-31T01:43:10;9.45;;;3.00;;
8716;SDS011;4395;48.554;8.820;2023-03-31T01:45:22;7.22;;;2.88;;
8716;SDS011;4395;48.554;8.820;2023-03-31T01:47:34;6.90;;;2.40;;
8716;SDS011;4395;48.554;8.820;2023-03-31T01:49:42;4.45;;;2.25;;
8716;SDS011;4395;48.554;8.820;2023-03-31T01:51:56;3.25;;;2.13;;
8716;SDS011;4395;48.554;8.820;2023-03-31T01:54:05;4.70;;;2.55;;
8716;SDS011;4395;48.554;8.820;2023-03-31T01:56:20;6.68;;;2.22;;
8716;SDS011;4395;48.554;8.820;2023-03-31T01:58:28;6.68;;;2.50;;
8716;SDS011;4395;48.554;8.820;2023-03-31T02:00:37;4.55;;;2.63;;
8716;SDS011;4395;48.554;8.820;2023-03-31T02:02:45;6.25;;;2.70;;
8716;SDS011;4395;48.554;8.820;2023-03-31T02:04:53;4.20;;;2.13;;
8716;SDS011;4395;48.554;8.820;2023-03-31T02:07:02;5.38;;;2.88;;
8716;SDS011;4395;48.554;8.820;2023-03-31T02:09:09;5.88;;;2.50;;
8716;SDS011;4395;48.554;8.820;2023-03-31T02:11:17;4.85;;;2.47;;
8716;SDS011;4395;48.554;8.820;2023-03-31T02:13:23;4.68;;;2.75;;
8716;SDS011;4395;48.554;8.820;2023-03-31T02:15:30;6.53;;;3.75;;
8716;SDS011;4395;48.554;8.820;2023-03-31T02:17:36;8.45;;;3.40;;
8716;SDS011;4395;48.554;8.820;2023-03-31T02:19:43;6.18;;;3.22;;
8716;SDS011;4395;48.554;8.820;2023-03-31T02:21:49;4.95;;;2.88;;
8716;SDS011;4395;48.554;8.820;2023-03-31T02:23:52;4.80;;;2.70;;
8716;SDS011;4395;48.554;8.820;2023-03-31T02:25:56;5.03;;;2.72;;
8716;SDS011;4395;48.554;8.820;2023-03-31T02:28:04;4.60;;;2.88;;
8716;SDS011;4395;48.554;8.820;2023-03-31T02:30:12;5.20;;;2.80;;
8716;SDS011;4395;48.554;8.820;2023-03-31T02:32:18;7.35;;;2.53;;
8716;SDS011;4395;48.554;8.820;2023-03-31T02:34:26;4.60;;;2.55;;
8716;SDS011;4395;48.554;8.820;2023-03-31T02:36:28;5.78;;;2.70;;
8716;SDS011;4395;48.554;8.820;2023-03-31T02:38:32;5.22;;;2.40;;
8716;SDS011;4395;48.554;8.820;2023-03-31T02:40:38;4.07;;;2.55;;
8716;SDS011;4395;48.554;8.820;2023-03-31T02:42:42;3.78;;;2.95;;
8716;SDS011;4395;48.554;8.820;2023-03-31T02:44:46;7.30;;;3.05;;
8716;SDS011;4395;48.554;8.820;2023-03-31T02:46:50;6.40;;;2.70;;
8716;SDS011;4395;48.554;8.820;2023-03-31T02:48:54;5.35;;;2.53;;
8716;SDS011;4395;48.554;8.820;2023-03-31T02:53:36;5.28;;;2.80;;
8716;SDS011;4395;48.554;8.820;2023-03-31T02:55:52;5.65;;;2.70;;
8716;SDS011;4395;48.554;8.820;2023-03-31T03:01:05;6.40;;;2.83;;
8716;SDS011;4395;48.554;8.820;2023-03-31T03:03:21;4.07;;;2.70;;
8716;SDS011;4395;48.554;8.820;2023-03-31T03:05:35;6.97;;;2.83;;
8716;SDS011;4395;48.554;8.820;2023-03-31T03:08:14;5.60;;;2.85;;
8716;SDS011;4395;48.554;8.820;2023-03-31T03:10:27;5.50;;;3.28;;
8716;SDS011;4395;48.554;8.820;2023-03-31T03:12:38;5.55;;;3.47;;
8716;SDS011;4395;48.554;8.820;2023-03-31T03:14:47;7.53;;;3.40;;
8716;SDS011;4395;48.554;8.820;2023-03-31T03:16:56;8.80;;;3.25;;
8716;SDS011;4395;48.554;8.820;2023-03-31T03:19:04;7.20;;;3.25;;
8716;SDS011;4395;48.554;8.820;2023-03-31T03:21:08;6.22;;;3.50;;
8716;SDS011;4395;48.554;8.820;2023-03-31T03:23:11;5.22;;;3.17;;
8716;SDS011;4395;48.554;8.820;2023-03-31T03:25:14;6.43;;;3.42;;
8716;SDS011;4395;48.554;8.820;2023-03-31T03:27:18;6.45;;;3.30;;
8716;SDS011;4395;48.554;8.820;2023-03-31T03:29:22;5.72;;;3.95;;
8716;SDS011;4395;48.554;8.820;2023-03-31T03:31:25;6.85;;;3.75;;
8716;SDS011;4395;48.554;8.820;2023-03-31T03:33:29;7.15;;;3.72;;
8716;SDS011;4395;48.554;8.820;2023-03-31T03:35:32;5.93;;;3.13;;
8716;SDS011;4395;48.554;8.820;2023-03-31T03:37:35;7.90;;;3.75;;
8716;SDS011;4395;48.554;8.820;2023-03-31T03:39:38;9.45;;;3.72;;
8716;SDS011;4395;48.554;8.820;2023-03-31T03:41:41;11.25;;;4.15;;
8716;SDS011;4395;48.554;8.820;2023-03-31T03:43:44;7.45;;;3.53;;
8716;SDS011;4395;48.554;8.820;2023-03-31T03:45:47;8.32;;;3.47;;
8716;SDS011;4395;48.554;8.820;2023-03-31T03:47:49;10.00;;;3.70;;
8716;SDS011;4395;48.554;8.820;2023-03-31T03:49:54;6.68;;;3.45;;
8716;SDS011;4395;48.554;8.820;2023-03-31T03:51:57;6.82;;;3.80;;
8716;SDS011;4395;48.554;8.820;2023-03-31T03:53:59;5.80;;;3.63;;
8716;SDS011;4395;48.554;8.820;2023-03-31T03:56:02;9.57;;;4.13;;
8716;SDS011;4395;48.554;8.820;2023-03-31T03:58:06;9.57;;;3.83;;
8716;SDS011;4395;48.554;8.820;2023-03-31T04:00:09;7.28;;;3.78;;
8716;SDS011;4395;48.554;8.820;2023-03-31T04:02:13;6.32;;;3.10;;
8716;SDS011;4395;48.554;8.820;2023-03-31T04:04:16;9.73;;;4.00;;
8716;SDS011;4395;48.554;8.820;2023-03-31T04:06:20;7.72;;;3.33;;
8716;SDS011;4395;48.554;8.820;2023-03-31T04:08:23;7.10;;;3.50;;
8716;SDS011;4395;48.554;8.820;2023-03-31T04:10:26;6.55;;;3.65;;
8716;SDS011;4395;48.554;8.820;2023-03-31T04:12:29;9.20;;;3.97;;
8716;SDS011;4395;48.554;8.820;2023-03-31T04:14:31;7.65;;;4.07;;
8716;SDS011;4395;48.554;8.820;2023-03-31T04:16:34;9.32;;;3.95;;
8716;SDS011;4395;48.554;8.820;2023-03-31T04:18:38;8.65;;;3.90;;
8716;SDS011;4395;48.554;8.820;2023-03-31T04:20:43;8.65;;;3.90;;
8716;SDS011;4395;48.554;8.820;2023-03-31T04:22:47;6.90;;;4.00;;
8716;SDS011;4395;48.554;8.820;2023-03-31T04:24:51;4.90;;;3.53;;
8716;SDS011;4395;48.554;8.820;2023-03-31T04:26:59;9.13;;;4.18;;
8716;SDS011;4395;48.554;8.820;2023-03-31T04:29:03;8.10;;;3.97;;
8716;SDS011;4395;48.554;8.820;2023-03-31T04:31:08;9.25;;;4.70;;
8716;SDS011;4395;48.554;8.820;2023-03-31T04:33:16;9.90;;;4.70;;
8716;SDS011;4395;48.554;8.820;2023-03-31T04:35:19;9.10;;;5.25;;
8716;SDS011;4395;48.554;8.820;2023-03-31T04:37:23;16.17;;;8.18;;
8716;SDS011;4395;48.554;8.820;2023-03-31T04:39:29;32.03;;;19.17;;
8716;SDS011;4395;48.554;8.820;2023-03-31T04:41:32;31.35;;;22.33;;
8716;SDS011;4395;48.554;8.820;2023-03-31T04:43:35;25.23;;;15.85;;
8716;SDS011;4395;48.554;8.820;2023-03-31T04:45:38;6.50;;;4.93;;
8716;SDS011;4395;48.554;8.820;2023-03-31T04:47:41;7.15;;;4.18;;
8716;SDS011;4395;48.554;8.820;2023-03-31T04:49:44;8.13;;;4.00;;
8716;SDS011;4395;48.554;8.820;2023-03-31T04:51:46;17.73;;;11.07;;
8716;SDS011;4395;48.554;8.820;2023-03-31T04:53:49;13.70;;;9.82;;
8716;SDS011;4395;48.554;8.820;2023-03-31T04:55:53;18.00;;;11.23;;
8716;SDS011;4395;48.554;8.820;2023-03-31T04:57:56;15.50;;;9.38;;
8716;SDS011;4395;48.554;8.820;2023-03-31T04:59:59;22.23;;;13.25;;
8716;SDS011;4395;48.554;8.820;2023-03-31T05:02:02;8.35;;;4.90;;
8716;SDS011;4395;48.554;8.820;2023-03-31T05:04:05;8.73;;;5.38;;
8716;SDS011;4395;48.554;8.820;2023-03-31T05:06:07;15.57;;;9.27;;
8716;SDS011;4395;48.554;8.820;2023-03-31T05:08:10;8.20;;;5.03;;
8716;SDS011;4395;48.554;8.820;2023-03-31T05:10:13;9.07;;;4.35;;
8716;SDS011;4395;48.554;8.820;2023-03-31T05:12:17;11.50;;;7.10;;
8716;SDS011;4395;48.554;8.820;2023-03-31T05:14:21;16.95;;;10.30;;
8716;SDS011;4395;48.554;8.820;2023-03-31T05:16:23;8.75;;;4.80;;
8716;SDS011;4395;48.554;8.820;2023-03-31T05:18:27;8.07;;;4.18;;
8716;SDS011;4395;48.554;8.820;2023-03-31T05:20:29;7.40;;;4.20;;
8716;SDS011;4395;48.554;8.820;2023-03-31T05:22:33;9.32;;;5.60;;
8716;SDS011;4395;48.554;8.820;2023-03-31T05:24:37;15.73;;;10.70;;
8716;SDS011;4395;48.554;8.820;2023-03-31T05:26:39;16.08;;;9.55;;
8716;SDS011;4395;48.554;8.820;2023-03-31T05:28:45;7.22;;;4.35;;
8716;SDS011;4395;48.554;8.820;2023-03-31T05:30:48;6.90;;;4.57;;
8716;SDS011;4395;48.554;8.820;2023-03-31T05:32:51;7.75;;;4.43;;
8716;SDS011;4395;48.554;8.820;2023-03-31T05:34:54;7.90;;;4.28;;
8716;SDS011;4395;48.554;8.820;2023-03-31T05:36:58;9.80;;;6.18;;
8716;SDS011;4395;48.554;8.820;2023-03-31T05:39:00;7.75;;;4.60;;
8716;SDS011;4395;48.554;8.820;2023-03-31T05:41:03;8.02;;;4.43;;
8716;SDS011;4395;48.554;8.820;2023-03-31T05:43:06;9.63;;;5.28;;
8716;SDS011;4395;48.554;8.820;2023-03-31T05:45:10;7.50;;;4.65;;
8716;SDS011;4395;48.554;8.820;2023-03-31T05:47:14;8.60;;;4.82;;
8716;SDS011;4395;48.554;8.820;2023-03-31T05:49:17;8.90;;;5.22;;
8716;SDS011;4395;48.554;8.820;2023-03-31T05:51:19;7.63;;;4.45;;
8716;SDS011;4395;48.554;8.820;2023-03-31T05:53:22;14.80;;;8.57;;
8716;SDS011;4395;48.554;8.820;2023-03-31T05:55:25;11.32;;;8.10;;
8716;SDS011;4395;48.554;8.820;2023-03-31T05:57:28;11.32;;;7.38;;
8716;SDS011;4395;48.554;8.820;2023-03-31T05:59:30;11.45;;;6.88;;
8716;SDS011;4395;48.554;8.820;2023-03-31T06:01:37;10.60;;;6.30;;
8716;SDS011;4395;48.554;8.820;2023-03-31T06:03:40;9.00;;;5.22;;
8716;SDS011;4395;48.554;8.820;2023-03-31T06:05:45;8.48;;;5.60;;
8716;SDS011;4395;48.554;8.820;2023-03-31T06:07:49;8.50;;;6.60;;
8716;SDS011;4395;48.554;8.820;2023-03-31T06:09:52;9.52;;;6.65;;
8716;SDS011;4395;48.554;8.820;2023-03-31T06:11:54;13.65;;;8.40;;
8716;SDS011;4395;48.554;8.820;2023-03-31T06:13:57;10.93;;;6.03;;
8716;SDS011;4395;48.554;8.820;2023-03-31T06:16:00;10.98;;;6.63;;
8716;SDS011;4395;48.554;8.820;2023-03-31T06:18:05;8.15;;;4.75;;
8716;SDS011;4395;48.554;8.820;2023-03-31T06:20:11;6.80;;;5.00;;
8716;SDS011;4395;48.554;8.820;2023-03-31T06:22:28;7.47;;;5.72;;
8716;SDS011;4395;48.554;8.820;2023-03-31T06:24:31;8.73;;;5.38;;
8716;SDS011;4395;48.554;8.820;2023-03-31T06:26:34;10.85;;;7.38;;
8716;SDS011;4395;48.554;8.820;2023-03-31T06:28:37;10.50;;;5.40;;
8716;SDS011;4395;48.554;8.820;2023-03-31T06:30:40;7.03;;;4.90;;
8716;SDS011;4395;48.554;8.820;2023-03-31T06:32:42;9.10;;;4.93;;
8716;SDS011;4395;48.554;8.820;2023-03-31T06:34:47;8.98;;;4.57;;
8716;SDS011;4395;48.554;8.820;2023-03-31T06:36:49;8.77;;;6.15;;
8716;SDS011;4395;48.554;8.820;2023-03-31T06:38:52;7.95;;;5.90;;
8716;SDS011;4395;48.554;8.820;2023-03-31T06:40:55;10.15;;;5.78;;
8716;SDS011;4395;48.554;8.820;2023-03-31T06:42:57;7.70;;;5.22;;
8716;SDS011;4395;48.554;8.820;2023-03-31T06:45:02;8.57;;;4.20;;
8716;SDS011;4395;48.554;8.820;2023-03-31T06:47:05;6.45;;;3.95;;
8716;SDS011;4395;48.554;8.820;2023-03-31T06:49:08;6.57;;;4.13;;
8716;SDS011;4395;48.554;8.820;2023-03-31T06:51:12;8.52;;;3.42;;
8716;SDS011;4395;48.554;8.820;2023-03-31T06:53:15;5.60;;;3.10;;
8716;SDS011;4395;48.554;8.820;2023-03-31T06:55:18;4.88;;;2.53;;
8716;SDS011;4395;48.554;8.820;2023-03-31T06:57:20;4.03;;;1.95;;
8716;SDS011;4395;48.554;8.820;2023-03-31T06:59:23;3.00;;;1.67;;
8716;SDS011;4395;48.554;8.820;2023-03-31T07:01:26;1.70;;;1.30;;
8716;SDS011;4395;48.554;8.820;2023-03-31T07:03:29;2.22;;;1.63;;
8716;SDS011;4395;48.554;8.820;2023-03-31T07:05:32;2.78;;;1.02;;
8716;SDS011;4395;48.554;8.820;2023-03-31T07:07:36;4.50;;;1.65;;
8716;SDS011;4395;48.554;8.820;2023-03-31T07:09:39;3.03;;;2.22;;
8716;SDS011;4395;48.554;8.820;2023-03-31T07:11:42;4.28;;;2.83;;
8716;SDS011;4395;48.554;8.820;2023-03-31T07:13:44;5.40;;;3.72;;
8716;SDS011;4395;48.554;8.820;2023-03-31T07:15:47;6.28;;;3.70;;
8716;SDS011;4395;48.554;8.820;2023-03-31T07:17:51;4.40;;;3.15;;
8716;SDS011;4395;48.554;8.820;2023-03-31T07:20:02;3.58;;;2.40;;
8716;SDS011;4395;48.554;8.820;2023-03-31T07:22:06;5.43;;;3.25;;
8716;SDS011;4395;48.554;8.820;2023-03-31T07:24:10;2.65;;;2.17;;
8716;SDS011;4395;48.554;8.820;2023-03-31T07:26:13;2.22;;;2.03;;
8716;SDS011;4395;48.554;8.820;2023-03-31T07:28:16;3.00;;;1.27;;
8716;SDS011;4395;48.554;8.820;2023-03-31T07:30:19;1.70;;;0.98;;
8716;SDS011;4395;48.554;8.820;2023-03-31T07:32:23;2.30;;;1.20;;
8716;SDS011;4395;48.554;8.820;2023-03-31T07:34:29;1.42;;;1.00;;
8716;SDS011;4395;48.554;8.820;2023-03-31T07:36:32;1.55;;;0.90;;
8716;SDS011;4395;48.554;8.820;2023-03-31T07:38:34;1.63;;;1.10;;
8716;SDS011;4395;48.554;8.820;2023-03-31T07:40:39;1.52;;;0.90;;
8716;SDS011;4395;48.554;8.820;2023-03-31T07:42:42;0.70;;;0.70;;
8716;SDS011;4395;48.554;8.820;2023-03-31T07:44:49;0.82;;;0.60;;
8716;SDS011;4395;48.554;8.820;2023-03-31T07:46:52;1.25;;;0.90;;
8716;SDS011;4395;48.554;8.820;2023-03-31T07:48:55;2.25;;;1.70;;
8716;SDS011;4395;48.554;8.820;2023-03-31T07:50:58;1.40;;;1.30;;
8716;SDS011;4395;48.554;8.820;2023-03-31T07:53:07;1.35;;;1.02;;
8716;SDS011;4395;48.554;8.820;2023-03-31T07:55:10;2.20;;;1.10;;
8716;SDS011;4395;48.554;8.820;2023-03-31T07:57:14;2.67;;;1.60;;
8716;SDS011;4395;48.554;8.820;2023-03-31T07:59:19;2.13;;;1.13;;
8716;SDS011;4395;48.554;8.820;2023-03-31T08:01:22;1.33;;;1.20;;
8716;SDS011;4395;48.554;8.820;2023-03-31T08:03:27;2.47;;;1.83;;
8716;SDS011;4395;48.554;8.820;2023-03-31T08:05:30;1.30;;;0.95;;
8716;SDS011;4395;48.554;8.820;2023-03-31T08:07:33;2.92;;;0.95;;
8716;SDS011;4395;48.554;8.820;2023-03-31T08:09:36;1.38;;;1.00;;
8716;SDS011;4395;48.554;8.820;2023-03-31T08:11:39;1.45;;;0.95;;
8716;SDS011;4395;48.554;8.820;2023-03-31T08:13:44;2.55;;;1.00;;
8716;SDS011;4395;48.554;8.820;2023-03-31T08:15:46;2.38;;;0.93;;
8716;SDS011;4395;48.554;8.820;2023-03-31T08:17:49;2.60;;;1.17;;
8716;SDS011;4395;48.554;8.820;2023-03-31T08:19:52;2.05;;;1.20;;
8716;SDS011;4395;48.554;8.820;2023-03-31T08:21:55;3.50;;;1.20;;
8716;SDS011;4395;48.554;8.820;2023-03-31T08:23:58;3.58;;;1.38;;
8716;SDS011;4395;48.554;8.820;2023-03-31T08:26:07;1.25;;;1.15;;
8716;SDS011;4395;48.554;8.820;2023-03-31T08:28:14;1.55;;;1.42;;
8716;SDS011;4395;48.554;8.820;2023-03-31T08:30:19;2.20;;;1.40;;
8716;SDS011;4395;48.554;8.820;2023-03-31T08:32:22;1.85;;;1.27;;
8716;SDS011;4395;48.554;8.820;2023-03-31T08:34:25;3.03;;;1.25;;
8716;SDS011;4395;48.554;8.820;2023-03-31T08:36:28;3.08;;;1.27;;
8716;SDS011;4395;48.554;8.820;2023-03-31T08:38:31;3.78;;;1.30;;
8716;SDS011;4395;48.554;8.820;2023-03-31T08:40:34;1.55;;;0.93;;
8716;SDS011;4395;48.554;8.820;2023-03-31T08:42:38;2.38;;;1.02;;
8716;SDS011;4395;48.554;8.820;2023-03-31T08:44:43;2.63;;;1.00;;
8716;SDS011;4395;48.554;8.820;2023-03-31T08:46:54;1.95;;;0.90;;
8716;SDS011;4395;48.554;8.820;2023-03-31T08:48:58;1.48;;;0.70;;
8716;SDS011;4395;48.554;8.820;2023-03-31T08:51:03;8.27;;;4.70;;
8716;SDS011;4395;48.554;8.820;2023-03-31T08:53:15;2.85;;;1.92;;
8716;SDS011;4395;48.554;8.820;2023-03-31T08:55:26;2.33;;;1.08;;
8716;SDS011;4395;48.554;8.820;2023-03-31T08:57:37;1.48;;;0.90;;
8716;SDS011;4395;48.554;8.820;2023-03-31T08:59:45;3.10;;;1.20;;
8716;SDS011;4395;48.554;8.820;2023-03-31T09:01:51;2.90;;;1.58;;
8716;SDS011;4395;48.554;8.820;2023-03-31T09:04:08;1.60;;;0.90;;
8716;SDS011;4395;48.554;8.820;2023-03-31T09:06:26;2.92;;;1.05;;
8716;SDS011;4395;48.554;8.820;2023-03-31T09:08:38;2.67;;;0.85;;
8716;SDS011;4395;48.554;8.820;2023-03-31T09:10:46;1.77;;;0.82;;
8716;SDS011;4395;48.554;8.820;2023-03-31T09:12:56;3.30;;;1.40;;
8716;SDS011;4395;48.554;8.820;2023-03-31T09:15:07;2.45;;;1.00;;
8716;SDS011;4395;48.554;8.820;2023-03-31T09:17:17;3.70;;;1.38;;
8716;SDS011;4395;48.554;8.820;2023-03-31T09:19:29;2.25;;;0.82;;
8716;SDS011;4395;48.554;8.820;2023-03-31T09:21:37;2.75;;;1.20;;
8716;SDS011;4395;48.554;8.820;2023-03-31T09:23:45;3.88;;;1.38;;
8716;SDS011;4395;48.554;8.820;2023-03-31T09:25:50;3.35;;;1.38;;
8716;SDS011;4395;48.554;8.820;2023-03-31T09:27:53;5.93;;;1.38;;
8716;SDS011;4395;48.554;8.820;2023-03-31T09:30:00;4.50;;;1.17;;
8716;SDS011;4395;48.554;8.820;2023-03-31T09:32:09;3.43;;;1.10;;
8716;SDS011;4395;48.554;8.820;2023-03-31T09:34:20;3.77;;;1.40;;
8716;SDS011;4395;48.554;8.820;2023-03-31T09:36:26;4.87;;;1.73;;
8716;SDS011;4395;48.554;8.820;2023-03-31T09:38:29;2.03;;;1.33;;
8716;SDS011;4395;48.554;8.820;2023-03-31T09:40:32;2.73;;;1.30;;
8716;SDS011;4395;48.554;8.820;2023-03-31T09:42:36;4.10;;;2.03;;
8716;SDS011;4395;48.554;8.820;2023-03-31T09:44:40;2.90;;;1.23;;
8716;SDS011;4395;48.554;8.820;2023-03-31T09:46:46;4.90;;;1.73;;
8716;SDS011;4395;48.554;8.820;2023-03-31T09:48:51;5.33;;;1.83;;
8716;SDS011;4395;48.554;8.820;2023-03-31T09:51:02;3.03;;;1.23;;
8716;SDS011;4395;48.554;8.820;2023-03-31T09:53:09;6.47;;;1.87;;
8716;SDS011;4395;48.554;8.820;2023-03-31T09:55:19;4.87;;;1.90;;
8716;SDS011;4395;48.554;8.820;2023-03-31T09:57:40;5.40;;;1.77;;
8716;SDS011;4395;48.554;8.820;2023-03-31T09:59:43;3.97;;;1.43;;
8716;SDS011;4395;48.554;8.820;2023-03-31T10:01:52;5.03;;;1.30;;
8716;SDS011;4395;48.554;8.820;2023-03-31T10:03:59;6.30;;;1.67;;
8716;SDS011;4395;48.554;8.820;2023-03-31T10:06:08;7.23;;;2.00;;
8716;SDS011;4395;48.554;8.820;2023-03-31T10:08:20;4.60;;;1.50;;
8716;SDS011;4395;48.554;8.820;2023-03-31T10:10:27;3.27;;;1.50;;
8716;SDS011;4395;48.554;8.820;2023-03-31T10:12:34;7.23;;;1.77;;
8716;SDS011;4395;48.554;8.820;2023-03-31T10:14:39;4.60;;;1.57;;
8716;SDS011;4395;48.554;8.820;2023-03-31T10:16:47;4.53;;;1.70;;
8716;SDS011;4395;48.554;8.820;2023-03-31T10:18:55;5.23;;;1.60;;
8716;SDS011;4395;48.554;8.820;2023-03-31T10:21:19;4.23;;;1.60;;
8716;SDS011;4395;48.554;8.820;2023-03-31T10:23:26;4.67;;;1.50;;
8716;SDS011;4395;48.554;8.820;2023-03-31T10:25:30;3.67;;;1.23;;
8716;SDS011;4395;48.554;8.820;2023-03-31T10:27:34;4.53;;;1.50;;
8716;SDS011;4395;48.554;8.820;2023-03-31T10:29:41;6.73;;;1.97;;
8716;SDS011;4395;48.554;8.820;2023-03-31T10:31:44;6.70;;;1.97;;
8716;SDS011;4395;48.554;8.820;2023-03-31T10:33:47;4.87;;;1.80;;
8716;SDS011;4395;48.554;8.820;2023-03-31T10:35:56;5.70;;;1.77;;
8716;SDS011;4395;48.554;8.820;2023-03-31T10:38:02;5.80;;;1.87;;
8716;SDS011;4395;48.554;8.820;2023-03-31T10:40:12;5.00;;;1.67;;
8716;SDS011;4395;48.554;8.820;2023-03-31T10:42:20;4.50;;;1.90;;
8716;SDS011;4395;48.554;8.820;2023-03-31T10:44:31;4.60;;;1.53;;
8716;SDS011;4395;48.554;8.820;2023-03-31T10:46:40;5.13;;;1.87;;
8716;SDS011;4395;48.554;8.820;2023-03-31T10:48:48;7.83;;;1.90;;
8716;SDS011;4395;48.554;8.820;2023-03-31T10:50:53;5.03;;;1.60;;
8716;SDS011;4395;48.554;8.820;2023-03-31T10:53:02;2.60;;;1.27;;
8716;SDS011;4395;48.554;8.820;2023-03-31T10:55:10;5.27;;;1.60;;
8716;SDS011;4395;48.554;8.820;2023-03-31T10:57:14;4.87;;;1.63;;
8716;SDS011;4395;48.554;8.820;2023-03-31T10:59:26;4.77;;;1.37;;
8716;SDS011;4395;48.554;8.820;2023-03-31T11:01:42;5.20;;;1.52;;
8716;SDS011;4395;48.554;8.820;2023-03-31T11:04:04;3.08;;;1.35;;
8716;SDS011;4395;48.554;8.820;2023-03-31T11:06:25;5.50;;;1.50;;
8716;SDS011;4395;48.554;8.820;2023-03-31T11:08:39;7.93;;;1.83;;
8716;SDS011;4395;48.554;8.820;2023-03-31T11:10:58;8.75;;;1.67;;
8716;SDS011;4395;48.554;8.820;2023-03-31T11:13:12;4.75;;;1.73;;
8716;SDS011;4395;48.554;8.820;2023-03-31T11:15:23;6.07;;;1.42;;
8716;SDS011;4395;48.554;8.820;2023-03-31T11:17:38;2.22;;;0.70;;
8716;SDS011;4395;48.554;8.820;2023-03-31T11:19:58;2.03;;;0.73;;
8716;SDS011;4395;48.554;8.820;2023-03-31T11:22:14;1.20;;;0.43;;
8716;SDS011;4395;48.554;8.820;2023-03-31T11:24:30;1.08;;;0.40;;
8716;SDS011;4395;48.554;8.820;2023-03-31T11:26:45;1.75;;;0.70;;
8716;SDS011;4395;48.554;8.820;2023-03-31T11:29:04;1.17;;;0.57;;
8716;SDS011;4395;48.554;8.820;2023-03-31T11:31:22;1.13;;;0.80;;
8716;SDS011;4395;48.554;8.820;2023-03-31T11:33:40;1.63;;;0.75;;
8716;SDS011;4395;48.554;8.820;2023-03-31T11:35:56;0.93;;;0.73;;
8716;SDS011;4395;48.554;8.820;2023-03-31T11:38:13;0.85;;;0.70;;
8716;SDS011;4395;48.554;8.820;2023-03-31T11:40:32;2.75;;;0.95;;
8716;SDS011;4395;48.554;8.820;2023-03-31T11:42:45;0.43;;;0.30;;
8716;SDS011;4395;48.554;8.820;2023-03-31T11:44:53;0.68;;;0.40;;
8716;SDS011;4395;48.554;8.820;2023-03-31T11:47:02;1.95;;;0.50;;
8716;SDS011;4395;48.554;8.820;2023-03-31T11:49:10;1.95;;;1.10;;
8716;SDS011;4395;48.554;8.820;2023-03-31T11:51:19;0.45;;;0.22;;
8716;SDS011;4395;48.554;8.820;2023-03-31T11:53:26;1.30;;;0.43;;
8716;SDS011;4395;48.554;8.820;2023-03-31T11:55:34;1.00;;;0.90;;
8716;SDS011;4395;48.554;8.820;2023-03-31T11:57:39;2.15;;;0.82;;
8716;SDS011;4395;48.554;8.820;2023-03-31T11:59:46;1.85;;;1.35;;
8716;SDS011;4395;48.554;8.820;2023-03-31T12:01:56;2.10;;;0.82;;
8716;SDS011;4395;48.554;8.820;2023-03-31T12:04:05;2.00;;;0.70;;
8716;SDS011;4395;48.554;8.820;2023-03-31T12:06:15;1.33;;;1.02;;
8716;SDS011;4395;48.554;8.820;2023-03-31T12:08:23;2.38;;;0.98;;
8716;SDS011;4395;48.554;8.820;2023-03-31T12:10:31;0.77;;;0.60;;
8716;SDS011;4395;48.554;8.820;2023-03-31T12:12:38;2.58;;;1.30;;
8716;SDS011;4395;48.554;8.820;2023-03-31T12:14:47;1.23;;;0.70;;
8716;SDS011;4395;48.554;8.820;2023-03-31T12:16:54;3.58;;;1.60;;
8716;SDS011;4395;48.554;8.820;2023-03-31T12:19:03;6.00;;;2.30;;
8716;SDS011;4395;48.554;8.820;2023-03-31T12:21:10;8.30;;;2.45;;
8716;SDS011;4395;48.554;8.820;2023-03-31T12:23:14;2.15;;;1.08;;
8716;SDS011;4395;48.554;8.820;2023-03-31T12:25:20;1.98;;;0.80;;
8716;SDS011;4395;48.554;8.820;2023-03-31T12:27:28;2.13;;;0.80;;
8716;SDS011;4395;48.554;8.820;2023-03-31T12:29:38;2.13;;;0.40;;
8716;SDS011;4395;48.554;8.820;2023-03-31T12:31:44;2.03;;;0.82;;
8716;SDS011;4395;48.554;8.820;2023-03-31T12:33:49;3.10;;;0.90;;
8716;SDS011;4395;48.554;8.820;2023-03-31T12:36:10;2.30;;;0.65;;
8716;SDS011;4395;48.554;8.820;2023-03-31T12:40:55;3.13;;;1.17;;
8716;SDS011;4395;48.554;8.820;2023-03-31T12:43:08;4.35;;;1.00;;
8716;SDS011;4395;48.554;8.820;2023-03-31T12:45:24;4.38;;;1.10;;
8716;SDS011;4395;48.554;8.820;2023-03-31T12:47:32;3.42;;;1.58;;
8716;SDS011;4395;48.554;8.820;2023-03-31T12:49:45;1.73;;;1.30;;
8716;SDS011;4395;48.554;8.820;2023-03-31T12:52:01;3.97;;;1.43;;
8716;SDS011;4395;48.554;8.820;2023-03-31T12:54:11;4.73;;;1.60;;
8716;SDS011;4395;48.554;8.820;2023-03-31T12:56:23;4.33;;;1.60;;
8716;SDS011;4395;48.554;8.820;2023-03-31T12:58:41;4.40;;;1.93;;
8716;SDS011;4395;48.554;8.820;2023-03-31T13:01:00;4.90;;;1.70;;
8716;SDS011;4395;48.554;8.820;2023-03-31T13:05:44;5.17;;;1.57;;
8716;SDS011;4395;48.554;8.820;2023-03-31T13:07:48;5.82;;;1.95;;
8716;SDS011;4395;48.554;8.820;2023-03-31T13:09:54;4.00;;;1.73;;
8716;SDS011;4395;48.554;8.820;2023-03-31T13:12:00;4.93;;;1.60;;
8716;SDS011;4395;48.554;8.820;2023-03-31T13:14:13;7.32;;;1.55;;
8716;SDS011;4395;48.554;8.820;2023-03-31T13:16:20;4.55;;;1.50;;
8716;SDS011;4395;48.554;8.820;2023-03-31T13:18:23;4.43;;;1.63;;
8716;SDS011;4395;48.554;8.820;2023-03-31T13:20:30;3.40;;;1.55;;
8716;SDS011;4395;48.554;8.820;2023-03-31T13:22:36;4.45;;;1.10;;
8716;SDS011;4395;48.554;8.820;2023-03-31T13:24:44;2.78;;;0.93;;
8716;SDS011;4395;48.554;8.820;2023-03-31T13:26:46;5.07;;;1.30;;
8716;SDS011;4395;48.554;8.820;2023-03-31T13:29:07;4.32;;;1.35;;
8716;SDS011;4395;48.554;8.820;2023-03-31T13:31:13;6.40;;;2.25;;